MLD026 UGTB-LUKK
Flight info
| Callsign | MLD026 |
|---|---|
| Flight time | N/A |
| Altitude | 32000 |
| Route | DF DCT BARUS DCT ROLIN UN644 KARDE UM859 UDROS DCT LEMPA DCT RIPGA DCT KODRU DCT LIPTA |
| Aircraft | T134/M-SDRWY/C |
Departure
| Time | 2026-04-21 13:26 |
|---|---|
| Airport | Tbilisi International Airport (UGTB) |
Arrival
| Time | N/A |
|---|---|
| Airport | Chişinău International Airport (LUKK) |
| Time | Latitude | Longitude | Altitude | Speed | Heading |
|---|---|---|---|---|---|
| 2026-04-21 12:51 | 41.67211 | 44.95908 | 1573 ft | 0 kts | 313° |
| 2026-04-21 13:19 | 41.67213 | 44.95906 | 1582 ft | 1 kts | 313° |
| 2026-04-21 13:19 | 41.67219 | 44.95896 | 1582 ft | 0 kts | 309° |
| 2026-04-21 13:19 | 41.67226 | 44.95875 | 1581 ft | 5 kts | 282° |
| 2026-04-21 13:20 | 41.67213 | 44.95825 | 1578 ft | 12 kts | 229° |
| 2026-04-21 13:20 | 41.67119 | 44.95839 | 1572 ft | 13 kts | 131° |
| 2026-04-21 13:20 | 41.67054 | 44.95938 | 1572 ft | 14 kts | 124° |
| 2026-04-21 13:20 | 41.66989 | 44.96040 | 1572 ft | 15 kts | 132° |
| 2026-04-21 13:21 | 41.66910 | 44.96151 | 1569 ft | 17 kts | 135° |
| 2026-04-21 13:21 | 41.66839 | 44.96252 | 1569 ft | 10 kts | 133° |
| 2026-04-21 13:21 | 41.66786 | 44.96326 | 1569 ft | 11 kts | 131° |
| 2026-04-21 13:21 | 41.66725 | 44.96410 | 1567 ft | 13 kts | 144° |
| 2026-04-21 13:22 | 41.66619 | 44.96408 | 1560 ft | 19 kts | 193° |
| 2026-04-21 13:22 | 41.66473 | 44.96360 | 1550 ft | 24 kts | 195° |
| 2026-04-21 13:22 | 41.66295 | 44.96305 | 1539 ft | 22 kts | 191° |
| 2026-04-21 13:22 | 41.66150 | 44.96337 | 1531 ft | 19 kts | 146° |
| 2026-04-21 13:23 | 41.66040 | 44.96475 | 1525 ft | 20 kts | 136° |
| 2026-04-21 13:23 | 41.65957 | 44.96576 | 1517 ft | 13 kts | 142° |
| 2026-04-21 13:23 | 41.65864 | 44.96574 | 1509 ft | 14 kts | 230° |
| 2026-04-21 13:23 | 41.65859 | 44.96457 | 1512 ft | 12 kts | 300° |
| 2026-04-21 13:24 | 41.65872 | 44.96434 | 1513 ft | 0 kts | 313° |
| 2026-04-21 13:25 | 41.65872 | 44.96433 | 1513 ft | 0 kts | 313° |
| 2026-04-21 13:25 | 41.65928 | 44.96361 | 1518 ft | 39 kts | 317° |
| 2026-04-21 13:25 | 41.66297 | 44.95905 | 1532 ft | 104 kts | 317° |
| 2026-04-21 13:25 | 41.66968 | 44.95059 | 1545 ft | 157 kts | 316° |
| 2026-04-21 13:26 | 41.67850 | 44.93923 | 1741 ft | 182 kts | 317° |
| 2026-04-21 13:26 | 41.68723 | 44.92762 | 2375 ft | 179 kts | 311° |
| 2026-04-21 13:26 | 41.69477 | 44.91391 | 2933 ft | 186 kts | 306° |
| 2026-04-21 13:26 | 41.70267 | 44.89974 | 3372 ft | 199 kts | 306° |
| 2026-04-21 13:27 | 41.71167 | 44.88478 | 3871 ft | 209 kts | 310° |
| 2026-04-21 13:27 | 41.72147 | 44.86985 | 4184 ft | 230 kts | 312° |
| 2026-04-21 13:27 | 41.73189 | 44.85335 | 4649 ft | 233 kts | 310° |
| 2026-04-21 13:27 | 41.74231 | 44.83651 | 5156 ft | 234 kts | 313° |
| 2026-04-21 13:28 | 41.75315 | 44.82046 | 5645 ft | 236 kts | 313° |
| 2026-04-21 13:28 | 41.76386 | 44.80403 | 6219 ft | 234 kts | 310° |
| 2026-04-21 13:28 | 41.77438 | 44.78735 | 6673 ft | 235 kts | 312° |
| 2026-04-21 13:28 | 41.78511 | 44.77142 | 7155 ft | 233 kts | 313° |
| 2026-04-21 13:29 | 41.79544 | 44.75455 | 7489 ft | 232 kts | 306° |
| 2026-04-21 13:29 | 41.80471 | 44.73714 | 7817 ft | 233 kts | 304° |
| 2026-04-21 13:29 | 41.81493 | 44.72001 | 8196 ft | 237 kts | 311° |
| 2026-04-21 13:29 | 41.82583 | 44.70293 | 8568 ft | 241 kts | 314° |
| 2026-04-21 13:30 | 41.83606 | 44.68552 | 8987 ft | 243 kts | 307° |
| 2026-04-21 13:30 | 41.84667 | 44.66752 | 9431 ft | 249 kts | 311° |
| 2026-04-21 13:30 | 41.85757 | 44.64931 | 9748 ft | 253 kts | 308° |
| 2026-04-21 13:30 | 41.86802 | 44.63006 | 10106 ft | 258 kts | 305° |
| 2026-04-21 13:31 | 41.87877 | 44.61052 | 10449 ft | 263 kts | 310° |
| 2026-04-21 13:31 | 41.89198 | 44.59340 | 10745 ft | 268 kts | 314° |
| 2026-04-21 13:31 | 41.90488 | 44.57545 | 11123 ft | 270 kts | 316° |
| 2026-04-21 13:31 | 41.91822 | 44.55782 | 11566 ft | 271 kts | 310° |
| 2026-04-21 13:32 | 41.92884 | 44.53711 | 12031 ft | 272 kts | 292° |
| 2026-04-21 13:32 | 41.93290 | 44.51254 | 12460 ft | 271 kts | 269° |
| 2026-04-21 13:32 | 41.93024 | 44.48755 | 12892 ft | 269 kts | 257° |
| 2026-04-21 13:32 | 41.92691 | 44.46321 | 13347 ft | 268 kts | 257° |
| 2026-04-21 13:33 | 41.92311 | 44.43883 | 13727 ft | 269 kts | 258° |
| 2026-04-21 13:33 | 41.91933 | 44.41427 | 14149 ft | 269 kts | 264° |
| 2026-04-21 13:33 | 41.91579 | 44.38976 | 14619 ft | 268 kts | 258° |
| 2026-04-21 13:33 | 41.91249 | 44.36541 | 15096 ft | 268 kts | 262° |
| 2026-04-21 13:34 | 41.90868 | 44.34083 | 15540 ft | 268 kts | 260° |
| 2026-04-21 13:34 | 41.90703 | 44.31496 | 15305 ft | 291 kts | 277° |
| 2026-04-21 13:34 | 41.90838 | 44.28742 | 15250 ft | 311 kts | 269° |
| 2026-04-21 13:34 | 41.90851 | 44.25831 | 15473 ft | 317 kts | 268° |
| 2026-04-21 13:35 | 41.90735 | 44.22802 | 15220 ft | 339 kts | 269° |
| 2026-04-21 13:35 | 41.90848 | 44.19587 | 15448 ft | 344 kts | 271° |
| 2026-04-21 13:35 | 41.90947 | 44.16396 | 15867 ft | 342 kts | 272° |
| 2026-04-21 13:35 | 41.91048 | 44.13211 | 16223 ft | 344 kts | 272° |
| 2026-04-21 13:36 | 41.91137 | 44.10029 | 16498 ft | 347 kts | 270° |
| 2026-04-21 13:36 | 41.90992 | 44.06766 | 16756 ft | 351 kts | 266° |
| 2026-04-21 13:36 | 41.90842 | 44.03509 | 17044 ft | 355 kts | 266° |
| 2026-04-21 13:36 | 41.90675 | 44.00191 | 17347 ft | 357 kts | 266° |
| 2026-04-21 13:37 | 41.90515 | 43.96885 | 17631 ft | 358 kts | 266° |
| 2026-04-21 13:37 | 41.90428 | 43.93538 | 17908 ft | 359 kts | 271° |
| 2026-04-21 13:37 | 41.90494 | 43.90181 | 18176 ft | 359 kts | 263° |
| 2026-04-21 13:37 | 41.90387 | 43.86858 | 18416 ft | 360 kts | 270° |
| 2026-04-21 13:38 | 41.90409 | 43.83510 | 18722 ft | 359 kts | 265° |
| 2026-04-21 13:38 | 41.90329 | 43.80175 | 18982 ft | 359 kts | 271° |
| 2026-04-21 13:38 | 41.90376 | 43.76861 | 19267 ft | 359 kts | 268° |
| 2026-04-21 13:38 | 41.90273 | 43.73535 | 19548 ft | 359 kts | 270° |
| 2026-04-21 13:39 | 41.90308 | 43.70192 | 19852 ft | 360 kts | 269° |
| 2026-04-21 13:39 | 41.90225 | 43.66813 | 20159 ft | 361 kts | 272° |
| 2026-04-21 13:39 | 41.90326 | 43.63467 | 20409 ft | 362 kts | 273° |
| 2026-04-21 13:39 | 41.90374 | 43.60088 | 20622 ft | 365 kts | 271° |
| 2026-04-21 13:40 | 41.90432 | 43.56680 | 20826 ft | 368 kts | 270° |
| 2026-04-21 13:40 | 41.90480 | 43.53216 | 20991 ft | 372 kts | 272° |
| 2026-04-21 13:40 | 41.90539 | 43.49765 | 21163 ft | 374 kts | 271° |
| 2026-04-21 13:40 | 41.90595 | 43.46259 | 21330 ft | 376 kts | 270° |
| 2026-04-21 13:41 | 41.90641 | 43.42769 | 21593 ft | 376 kts | 270° |
| 2026-04-21 13:41 | 41.90673 | 43.39281 | 21889 ft | 375 kts | 269° |
| 2026-04-21 13:41 | 41.90709 | 43.35805 | 22244 ft | 374 kts | 271° |
| 2026-04-21 13:41 | 41.90756 | 43.32300 | 22607 ft | 374 kts | 269° |
| 2026-04-21 13:42 | 41.90778 | 43.28816 | 22956 ft | 375 kts | 269° |
| 2026-04-21 13:42 | 41.90813 | 43.25343 | 23255 ft | 376 kts | 270° |
| 2026-04-21 13:42 | 41.90840 | 43.21827 | 23521 ft | 376 kts | 270° |
| 2026-04-21 13:42 | 41.90868 | 43.18343 | 23792 ft | 377 kts | 270° |
| 2026-04-21 13:43 | 41.90894 | 43.14809 | 24049 ft | 378 kts | 269° |
| 2026-04-21 13:43 | 41.90918 | 43.11290 | 24287 ft | 379 kts | 269° |
| 2026-04-21 13:43 | 41.90941 | 43.07795 | 24516 ft | 380 kts | 269° |
| 2026-04-21 13:43 | 41.90963 | 43.04238 | 24739 ft | 380 kts | 269° |
| 2026-04-21 13:44 | 41.90982 | 43.00722 | 24951 ft | 381 kts | 269° |
| 2026-04-21 13:44 | 41.91000 | 42.97151 | 25156 ft | 384 kts | 269° |
| 2026-04-21 13:44 | 41.91016 | 42.93544 | 25348 ft | 388 kts | 269° |
| 2026-04-21 13:44 | 41.91030 | 42.89934 | 25553 ft | 391 kts | 269° |
| 2026-04-21 13:45 | 41.91041 | 42.86270 | 25770 ft | 394 kts | 269° |
| 2026-04-21 13:45 | 41.91051 | 42.82584 | 25990 ft | 396 kts | 269° |
| 2026-04-21 13:45 | 41.91058 | 42.78863 | 26184 ft | 398 kts | 269° |
| 2026-04-21 13:45 | 41.91064 | 42.75153 | 26370 ft | 400 kts | 269° |
| 2026-04-21 13:46 | 41.91233 | 42.71443 | 26554 ft | 402 kts | 275° |
| 2026-04-21 13:46 | 41.91311 | 42.67679 | 26743 ft | 402 kts | 267° |
| 2026-04-21 13:46 | 41.91270 | 42.63919 | 26938 ft | 404 kts | 269° |
| 2026-04-21 13:46 | 41.91230 | 42.60130 | 27137 ft | 405 kts | 268° |
| 2026-04-21 13:47 | 41.91108 | 42.56366 | 27336 ft | 406 kts | 264° |
| 2026-04-21 13:47 | 41.90857 | 42.52601 | 27539 ft | 406 kts | 265° |
| 2026-04-21 13:47 | 41.90612 | 42.48802 | 27715 ft | 408 kts | 264° |
| 2026-04-21 13:47 | 41.90365 | 42.45024 | 27813 ft | 412 kts | 264° |
| 2026-04-21 13:48 | 41.90116 | 42.41230 | 27964 ft | 412 kts | 264° |
| 2026-04-21 13:48 | 41.89864 | 42.37384 | 28121 ft | 411 kts | 264° |
| 2026-04-21 13:48 | 41.89614 | 42.33586 | 28257 ft | 411 kts | 264° |
| 2026-04-21 13:48 | 41.89364 | 42.29798 | 28394 ft | 411 kts | 264° |
| 2026-04-21 13:49 | 41.89111 | 42.25997 | 28530 ft | 410 kts | 264° |
| 2026-04-21 13:49 | 41.88854 | 42.22163 | 28667 ft | 411 kts | 264° |
| 2026-04-21 13:49 | 41.88596 | 42.18353 | 28806 ft | 411 kts | 264° |
| 2026-04-21 13:49 | 41.88339 | 42.14579 | 28942 ft | 411 kts | 264° |
| 2026-04-21 13:50 | 41.88075 | 42.10743 | 29081 ft | 411 kts | 264° |
| 2026-04-21 13:50 | 41.87812 | 42.06932 | 29217 ft | 412 kts | 264° |
| 2026-04-21 13:50 | 41.87546 | 42.03122 | 29352 ft | 412 kts | 264° |
| 2026-04-21 13:50 | 41.87284 | 41.99392 | 29483 ft | 412 kts | 264° |
| 2026-04-21 13:51 | 41.87014 | 41.95580 | 29617 ft | 413 kts | 264° |
| 2026-04-21 13:51 | 41.86806 | 41.92669 | 29720 ft | 413 kts | 264° |
| 2026-04-21 13:51 | 41.86267 | 41.85178 | 29979 ft | 413 kts | 264° |
| 2026-04-21 13:52 | 41.85989 | 41.81360 | 30109 ft | 414 kts | 264° |
| 2026-04-21 13:52 | 41.85724 | 41.77757 | 30234 ft | 414 kts | 264° |
| 2026-04-21 13:52 | 41.85445 | 41.73967 | 30369 ft | 414 kts | 264° |
| 2026-04-21 13:52 | 41.85159 | 41.70133 | 30504 ft | 415 kts | 264° |
| 2026-04-21 13:53 | 41.84874 | 41.66342 | 30637 ft | 415 kts | 264° |
| 2026-04-21 13:53 | 41.84607 | 41.62804 | 30761 ft | 416 kts | 264° |
| 2026-04-21 13:53 | 41.84305 | 41.58833 | 30899 ft | 416 kts | 264° |
| 2026-04-21 13:53 | 41.84014 | 41.55037 | 31030 ft | 417 kts | 264° |
| 2026-04-21 13:54 | 41.83715 | 41.51171 | 31164 ft | 417 kts | 264° |
| 2026-04-21 13:54 | 41.83415 | 41.47320 | 31297 ft | 417 kts | 264° |
| 2026-04-21 13:54 | 41.83110 | 41.43462 | 31415 ft | 417 kts | 264° |
| 2026-04-21 13:54 | 41.82812 | 41.39714 | 31523 ft | 418 kts | 264° |
| 2026-04-21 13:55 | 41.82510 | 41.35939 | 31632 ft | 418 kts | 264° |
| 2026-04-21 13:55 | 41.81868 | 41.28005 | 31868 ft | 419 kts | 264° |
| 2026-04-21 13:55 | 41.81554 | 41.24153 | 31983 ft | 419 kts | 264° |
| 2026-04-21 13:56 | 41.81233 | 41.20246 | 32100 ft | 420 kts | 264° |
| 2026-04-21 13:56 | 41.80914 | 41.16395 | 32215 ft | 420 kts | 264° |
| 2026-04-21 13:56 | 41.80592 | 41.12522 | 32330 ft | 420 kts | 264° |
| 2026-04-21 13:56 | 41.80265 | 41.08618 | 32446 ft | 420 kts | 264° |
| 2026-04-21 13:57 | 41.79940 | 41.04763 | 32559 ft | 421 kts | 264° |
| 2026-04-21 13:57 | 41.79613 | 41.00895 | 32672 ft | 421 kts | 264° |
| 2026-04-21 13:57 | 41.79279 | 40.96978 | 32786 ft | 421 kts | 264° |
| 2026-04-21 13:57 | 41.78949 | 40.93124 | 32897 ft | 421 kts | 264° |
| 2026-04-21 13:58 | 41.78615 | 40.89254 | 33006 ft | 421 kts | 264° |
| 2026-04-21 13:58 | 41.78279 | 40.85378 | 33115 ft | 421 kts | 264° |
| 2026-04-21 13:58 | 41.77941 | 40.81505 | 33223 ft | 421 kts | 264° |
| 2026-04-21 13:58 | 41.77595 | 40.77578 | 33331 ft | 421 kts | 264° |
| 2026-04-21 13:59 | 41.77251 | 40.73693 | 33438 ft | 421 kts | 264° |
| 2026-04-21 13:59 | 41.76928 | 40.70080 | 33362 ft | 427 kts | 264° |
| 2026-04-21 13:59 | 41.76569 | 40.66067 | 33074 ft | 436 kts | 264° |
| 2026-04-21 13:59 | 41.76204 | 40.62009 | 32861 ft | 440 kts | 264° |
| 2026-04-21 14:00 | 41.75469 | 40.53898 | 32634 ft | 441 kts | 264° |
| 2026-04-21 14:00 | 41.75099 | 40.49853 | 32461 ft | 442 kts | 264° |
| 2026-04-21 14:00 | 41.74724 | 40.45770 | 32278 ft | 442 kts | 264° |
| 2026-04-21 14:01 | 41.73985 | 40.37800 | 32033 ft | 441 kts | 264° |
| 2026-04-21 14:01 | 41.73273 | 40.30215 | 31947 ft | 437 kts | 263° |
| 2026-04-21 14:02 | 41.72565 | 40.22732 | 31972 ft | 434 kts | 263° |
| 2026-04-21 14:03 | 41.71429 | 40.10643 | 31991 ft | 439 kts | 266° |
| 2026-04-21 14:03 | 41.71509 | 40.06679 | 32007 ft | 438 kts | 279° |
| 2026-04-21 14:03 | 41.72272 | 40.02942 | 32008 ft | 439 kts | 290° |
| 2026-04-21 14:04 | 41.74369 | 39.95480 | 31994 ft | 438 kts | 289° |
| 2026-04-21 14:04 | 41.76436 | 39.87889 | 31992 ft | 437 kts | 289° |
| 2026-04-21 14:05 | 41.78484 | 39.80336 | 31991 ft | 437 kts | 289° |
| 2026-04-21 14:05 | 41.80495 | 39.72892 | 31992 ft | 437 kts | 289° |
| 2026-04-21 14:06 | 41.82534 | 39.65318 | 31992 ft | 437 kts | 289° |
| 2026-04-21 14:06 | 41.84490 | 39.58028 | 31992 ft | 437 kts | 289° |
| 2026-04-21 14:07 | 41.86419 | 39.50820 | 31991 ft | 437 kts | 289° |
| 2026-04-21 14:07 | 41.88358 | 39.43541 | 31992 ft | 437 kts | 289° |
| 2026-04-21 14:08 | 41.90201 | 39.36068 | 31991 ft | 437 kts | 288° |
| 2026-04-21 14:08 | 41.92044 | 39.28501 | 31995 ft | 436 kts | 287° |
| 2026-04-21 14:09 | 41.93847 | 39.21069 | 31994 ft | 436 kts | 287° |
| 2026-04-21 14:09 | 41.95122 | 39.13629 | 32010 ft | 435 kts | 270° |
| 2026-04-21 14:09 | 41.94816 | 39.09596 | 32005 ft | 438 kts | 258° |
| 2026-04-21 14:10 | 41.94047 | 39.05796 | 32000 ft | 439 kts | 256° |
| 2026-04-21 14:10 | 41.92446 | 38.97958 | 31991 ft | 438 kts | 256° |
| 2026-04-21 14:11 | 41.90845 | 38.90118 | 31986 ft | 438 kts | 256° |
| 2026-04-21 14:11 | 41.89250 | 38.82321 | 31985 ft | 438 kts | 256° |
| 2026-04-21 14:12 | 41.87652 | 38.74493 | 31985 ft | 437 kts | 257° |
| 2026-04-21 14:12 | 41.86051 | 38.66663 | 31983 ft | 437 kts | 257° |
| 2026-04-21 14:13 | 41.84448 | 38.58836 | 31982 ft | 437 kts | 257° |
| 2026-04-21 14:13 | 41.82841 | 38.50997 | 31981 ft | 436 kts | 257° |
| 2026-04-21 14:14 | 41.81236 | 38.43173 | 31980 ft | 436 kts | 257° |
| 2026-04-21 14:14 | 41.80106 | 38.35274 | 31994 ft | 432 kts | 273° |
| 2026-04-21 14:15 | 41.80588 | 38.27258 | 31989 ft | 433 kts | 275° |
| 2026-04-21 14:15 | 41.81098 | 38.19282 | 31985 ft | 431 kts | 275° |
| 2026-04-21 14:16 | 41.81602 | 38.11334 | 31983 ft | 431 kts | 275° |
| 2026-04-21 14:16 | 41.82109 | 38.03364 | 31984 ft | 431 kts | 275° |
| 2026-04-21 14:17 | 41.82618 | 37.95351 | 31986 ft | 431 kts | 276° |
| 2026-04-21 14:17 | 41.82925 | 37.87373 | 31983 ft | 432 kts | 265° |
| 2026-04-21 14:17 | 41.82296 | 37.83439 | 31976 ft | 436 kts | 253° |
| 2026-04-21 14:18 | 41.81274 | 37.79747 | 31980 ft | 435 kts | 252° |
| 2026-04-21 14:18 | 41.79253 | 37.72159 | 31963 ft | 435 kts | 253° |
| 2026-04-21 14:19 | 41.77213 | 37.64528 | 31963 ft | 435 kts | 253° |
| 2026-04-21 14:19 | 41.75655 | 37.57013 | 31975 ft | 431 kts | 269° |
| 2026-04-21 14:19 | 41.75789 | 37.53239 | 31975 ft | 430 kts | 281° |
| 2026-04-21 14:20 | 41.76575 | 37.49426 | 31986 ft | 430 kts | 290° |
| 2026-04-21 14:20 | 41.78518 | 37.41911 | 31966 ft | 430 kts | 289° |
| 2026-04-21 14:21 | 41.79922 | 37.34477 | 31989 ft | 430 kts | 275° |
| 2026-04-21 14:21 | 41.80409 | 37.26489 | 31969 ft | 432 kts | 275° |
| 2026-04-21 14:22 | 41.80909 | 37.18510 | 31972 ft | 432 kts | 275° |
| 2026-04-21 14:22 | 41.81440 | 37.10097 | 31970 ft | 432 kts | 275° |
| 2026-04-21 14:23 | 41.81997 | 37.01358 | 31968 ft | 431 kts | 277° |